sensor_id;sensor_type;location;lat;lon;timestamp;pressure;altitude;pressure_sealevel;temperature;humidity
16331;BME280;8275;48.206;16.340;2022-08-18T00:01:38;98557.13;;;29.61;27.78
16331;BME280;8275;48.206;16.340;2022-08-18T00:04:10;98546.22;;;29.60;27.70
16331;BME280;8275;48.206;16.340;2022-08-18T00:06:58;98541.00;;;29.58;28.02
16331;BME280;8275;48.206;16.340;2022-08-18T00:09:27;98551.84;;;29.56;27.89
16331;BME280;8275;48.206;16.340;2022-08-18T00:12:00;98547.84;;;29.54;27.96
16331;BME280;8275;48.206;16.340;2022-08-18T00:14:31;98557.09;;;29.54;27.92
16331;BME280;8275;48.206;16.340;2022-08-18T00:16:59;98557.91;;;29.51;28.09
16331;BME280;8275;48.206;16.340;2022-08-18T00:19:29;98562.75;;;29.51;27.95
16331;BME280;8275;48.206;16.340;2022-08-18T00:22:18;98567.56;;;29.47;27.97
16331;BME280;8275;48.206;16.340;2022-08-18T00:24:49;98569.97;;;29.45;28.12
16331;BME280;8275;48.206;16.340;2022-08-18T00:27:22;98571.19;;;29.44;28.25
16331;BME280;8275;48.206;16.340;2022-08-18T00:29:58;98580.44;;;29.41;27.84
16331;BME280;8275;48.206;16.340;2022-08-18T00:32:29;98586.09;;;29.41;28.33
16331;BME280;8275;48.206;16.340;2022-08-18T00:35:10;98579.63;;;29.37;28.06
16331;BME280;8275;48.206;16.340;2022-08-18T00:37:40;98580.44;;;29.37;28.04
16331;BME280;8275;48.206;16.340;2022-08-18T00:40:15;98586.47;;;29.32;28.38
16331;BME280;8275;48.206;16.340;2022-08-18T00:42:46;98586.88;;;29.31;28.20
16331;BME280;8275;48.206;16.340;2022-08-18T00:45:19;98591.28;;;29.28;28.31
16331;BME280;8275;48.206;16.340;2022-08-18T00:47:49;98585.25;;;29.26;28.08
16331;BME280;8275;48.206;16.340;2022-08-18T00:50:25;98583.59;;;29.22;28.31
16331;BME280;8275;48.206;16.340;2022-08-18T00:52:57;98582.78;;;29.21;28.41
16331;BME280;8275;48.206;16.340;2022-08-18T00:55:28;98578.34;;;29.20;28.42
16331;BME280;8275;48.206;16.340;2022-08-18T00:58:02;98586.41;;;29.18;28.65
16331;BME280;8275;48.206;16.340;2022-08-18T01:00:34;98580.28;;;29.12;28.62
16331;BME280;8275;48.206;16.340;2022-08-18T01:03:11;98595.19;;;29.13;28.74
16331;BME280;8275;48.206;16.340;2022-08-18T01:05:54;98593.97;;;29.10;28.47
16331;BME280;8275;48.206;16.340;2022-08-18T01:08:23;98602.44;;;29.10;28.83
16331;BME280;8275;48.206;16.340;2022-08-18T01:10:57;98593.56;;;29.08;29.00
16331;BME280;8275;48.206;16.340;2022-08-18T01:13:30;98591.56;;;29.05;28.87
16331;BME280;8275;48.206;16.340;2022-08-18T01:16:00;98594.75;;;29.04;28.63
16331;BME280;8275;48.206;16.340;2022-08-18T01:18:50;98594.75;;;29.04;28.60
16331;BME280;8275;48.206;16.340;2022-08-18T01:21:42;98596.34;;;28.98;28.68
16331;BME280;8275;48.206;16.340;2022-08-18T01:24:23;98595.13;;;28.95;28.78
16331;BME280;8275;48.206;16.340;2022-08-18T01:27:16;98599.13;;;28.94;29.10
16331;BME280;8275;48.206;16.340;2022-08-18T01:29:46;98602.34;;;28.93;29.00
16331;BME280;8275;48.206;16.340;2022-08-18T01:32:17;98599.94;;;28.91;29.28
16331;BME280;8275;48.206;16.340;2022-08-18T01:34:47;98596.69;;;28.89;29.22
16331;BME280;8275;48.206;16.340;2022-08-18T01:37:18;98597.06;;;28.88;29.07
16331;BME280;8275;48.206;16.340;2022-08-18T01:39:49;98588.63;;;28.84;29.01
16331;BME280;8275;48.206;16.340;2022-08-18T01:42:38;98589.81;;;28.83;29.32
16331;BME280;8275;48.206;16.340;2022-08-18T01:45:10;98578.50;;;28.80;29.33
16331;BME280;8275;48.206;16.340;2022-08-18T01:47:40;98588.16;;;28.79;29.18
16331;BME280;8275;48.206;16.340;2022-08-18T01:50:15;98580.47;;;28.76;29.48
16331;BME280;8275;48.206;16.340;2022-08-18T01:52:44;98584.53;;;28.75;29.24
16331;BME280;8275;48.206;16.340;2022-08-18T01:55:14;98579.66;;;28.72;29.41
16331;BME280;8275;48.206;16.340;2022-08-18T01:57:45;98570.38;;;28.71;29.41
16331;BME280;8275;48.206;16.340;2022-08-18T02:00:16;98566.75;;;28.67;29.36
16331;BME280;8275;48.206;16.340;2022-08-18T02:02:46;98558.28;;;28.67;29.74
16331;BME280;8275;48.206;16.340;2022-08-18T02:05:32;98565.09;;;28.63;29.39
16331;BME280;8275;48.206;16.340;2022-08-18T02:08:02;98557.47;;;28.63;29.77
16331;BME280;8275;48.206;16.340;2022-08-18T02:10:32;98560.25;;;28.60;30.03
16331;BME280;8275;48.206;16.340;2022-08-18T02:13:01;98556.63;;;28.59;29.99
16331;BME280;8275;48.206;16.340;2022-08-18T02:15:30;98552.56;;;28.57;30.09
16331;BME280;8275;48.206;16.340;2022-08-18T02:17:59;98555.75;;;28.55;30.09
16331;BME280;8275;48.206;16.340;2022-08-18T02:20:27;98551.75;;;28.52;30.10
16331;BME280;8275;48.206;16.340;2022-08-18T02:22:56;98554.94;;;28.51;29.70
16331;BME280;8275;48.206;16.340;2022-08-18T02:25:25;98540.84;;;28.47;29.71
16331;BME280;8275;48.206;16.340;2022-08-18T02:27:55;98544.41;;;28.44;30.23
16331;BME280;8275;48.206;16.340;2022-08-18T02:30:24;98553.66;;;28.41;30.18
16331;BME280;8275;48.206;16.340;2022-08-18T02:32:52;98552.06;;;28.40;30.12
16331;BME280;8275;48.206;16.340;2022-08-18T02:35:22;98558.47;;;28.37;30.34
16331;BME280;8275;48.206;16.340;2022-08-18T02:37:51;98543.97;;;28.35;30.53
16331;BME280;8275;48.206;16.340;2022-08-18T02:40:20;98554.81;;;28.33;30.40
16331;BME280;8275;48.206;16.340;2022-08-18T02:42:49;98543.13;;;28.31;30.50
16331;BME280;8275;48.206;16.340;2022-08-18T02:45:20;98547.53;;;28.29;30.52
16331;BME280;8275;48.206;16.340;2022-08-18T02:47:51;98553.53;;;28.27;30.79
16331;BME280;8275;48.206;16.340;2022-08-18T02:50:21;98552.75;;;28.27;30.39
16331;BME280;8275;48.206;16.340;2022-08-18T02:52:50;98545.06;;;28.24;31.01
16331;BME280;8275;48.206;16.340;2022-08-18T02:55:20;98537.03;;;28.22;30.67
16331;BME280;8275;48.206;16.340;2022-08-18T02:57:49;98549.47;;;28.21;30.91
16331;BME280;8275;48.206;16.340;2022-08-18T03:00:19;98548.25;;;28.19;30.62
16331;BME280;8275;48.206;16.340;2022-08-18T03:02:49;98544.63;;;28.18;31.20
16331;BME280;8275;48.206;16.340;2022-08-18T03:05:19;98546.19;;;28.16;31.15
16331;BME280;8275;48.206;16.340;2022-08-18T03:07:48;98539.78;;;28.15;30.93
16331;BME280;8275;48.206;16.340;2022-08-18T03:10:17;98532.09;;;28.12;30.60
16331;BME280;8275;48.206;16.340;2022-08-18T03:13:00;98539.75;;;28.12;30.73
16331;BME280;8275;48.206;16.340;2022-08-18T03:15:30;98534.91;;;28.09;31.06
16331;BME280;8275;48.206;16.340;2022-08-18T03:17:59;98530.47;;;28.08;31.11
16331;BME280;8275;48.206;16.340;2022-08-18T03:20:28;98533.69;;;28.06;30.99
16331;BME280;8275;48.206;16.340;2022-08-18T03:22:58;98546.53;;;28.04;31.11
16331;BME280;8275;48.206;16.340;2022-08-18T03:25:41;98541.66;;;28.01;31.11
16331;BME280;8275;48.206;16.340;2022-08-18T03:28:10;98550.09;;;28.01;30.95
16331;BME280;8275;48.206;16.340;2022-08-18T03:30:40;98548.84;;;27.98;31.37
16331;BME280;8275;48.206;16.340;2022-08-18T03:33:09;98552.50;;;27.99;31.44
16331;BME280;8275;48.206;16.340;2022-08-18T03:35:37;98541.63;;;27.97;30.94
16331;BME280;8275;48.206;16.340;2022-08-18T03:38:08;98534.34;;;27.96;31.21
16331;BME280;8275;48.206;16.340;2022-08-18T03:40:36;98532.34;;;27.97;31.41
16331;BME280;8275;48.206;16.340;2022-08-18T03:43:05;98525.91;;;27.96;31.46
16331;BME280;8275;48.206;16.340;2022-08-18T03:45:55;98529.13;;;27.95;31.14
16331;BME280;8275;48.206;16.340;2022-08-18T03:48:27;98533.16;;;27.97;31.28
16331;BME280;8275;48.206;16.340;2022-08-18T03:51:02;98534.75;;;27.95;31.66
16331;BME280;8275;48.206;16.340;2022-08-18T03:53:33;98532.81;;;27.99;31.32
16331;BME280;8275;48.206;16.340;2022-08-18T03:56:05;98528.78;;;28.00;31.60
16331;BME280;8275;48.206;16.340;2022-08-18T03:58:35;98524.38;;;28.02;31.46
16331;BME280;8275;48.206;16.340;2022-08-18T04:01:05;98536.50;;;28.06;31.03
16331;BME280;8275;48.206;16.340;2022-08-18T04:03:34;98539.31;;;28.10;31.49
16331;BME280;8275;48.206;16.340;2022-08-18T04:06:03;98533.28;;;28.11;31.21
16331;BME280;8275;48.206;16.340;2022-08-18T04:08:38;98545.78;;;28.14;31.43
16331;BME280;8275;48.206;16.340;2022-08-18T04:11:06;98547.84;;;28.17;31.14
16331;BME280;8275;48.206;16.340;2022-08-18T04:13:34;98555.88;;;28.18;31.19
16331;BME280;8275;48.206;16.340;2022-08-18T04:16:05;98553.50;;;28.20;31.20
16331;BME280;8275;48.206;16.340;2022-08-18T04:18:34;98557.97;;;28.25;31.62
16331;BME280;8275;48.206;16.340;2022-08-18T04:21:06;98555.94;;;28.25;31.12
16331;BME280;8275;48.206;16.340;2022-08-18T04:23:37;98563.22;;;28.30;31.21
16331;BME280;8275;48.206;16.340;2022-08-18T04:26:11;98565.25;;;28.33;31.62
16331;BME280;8275;48.206;16.340;2022-08-18T04:28:45;98566.91;;;28.37;31.25
16331;BME280;8275;48.206;16.340;2022-08-18T04:31:15;98570.94;;;28.40;31.50
16331;BME280;8275;48.206;16.340;2022-08-18T04:33:45;98568.59;;;28.45;31.49
16331;BME280;8275;48.206;16.340;2022-08-18T04:36:14;98570.25;;;28.50;31.22
16331;BME280;8275;48.206;16.340;2022-08-18T04:38:46;98568.66;;;28.56;31.62
16331;BME280;8275;48.206;16.340;2022-08-18T04:41:16;98575.97;;;28.61;31.54
16331;BME280;8275;48.206;16.340;2022-08-18T04:43:45;98568.34;;;28.65;31.41
16331;BME280;8275;48.206;16.340;2022-08-18T04:46:15;98576.03;;;28.71;31.61
16331;BME280;8275;48.206;16.340;2022-08-18T04:48:50;98582.53;;;28.79;31.49
16331;BME280;8275;48.206;16.340;2022-08-18T04:51:20;98588.63;;;28.84;31.66
16331;BME280;8275;48.206;16.340;2022-08-18T04:54:08;98587.44;;;28.92;31.55
16331;BME280;8275;48.206;16.340;2022-08-18T04:56:38;98586.66;;;28.99;31.47
16331;BME280;8275;48.206;16.340;2022-08-18T04:59:11;98589.94;;;29.04;31.62
16331;BME280;8275;48.206;16.340;2022-08-18T05:01:44;98591.56;;;29.12;31.55
16331;BME280;8275;48.206;16.340;2022-08-18T05:04:16;98595.28;;;29.20;31.57
16331;BME280;8275;48.206;16.340;2022-08-18T05:06:45;98602.16;;;29.26;31.37
16331;BME280;8275;48.206;16.340;2022-08-18T05:09:14;98613.47;;;29.30;31.66
16331;BME280;8275;48.206;16.340;2022-08-18T05:11:49;98614.28;;;29.34;31.74
16331;BME280;8275;48.206;16.340;2022-08-18T05:14:18;98614.31;;;29.37;31.54
16331;BME280;8275;48.206;16.340;2022-08-18T05:16:48;98613.13;;;29.42;31.53
16331;BME280;8275;48.206;16.340;2022-08-18T05:19:19;98616.34;;;29.47;31.47
16331;BME280;8275;48.206;16.340;2022-08-18T05:21:53;98608.72;;;29.55;31.80
16331;BME280;8275;48.206;16.340;2022-08-18T05:24:30;98610.75;;;29.61;31.65
16331;BME280;8275;48.206;16.340;2022-08-18T05:27:04;98612.78;;;29.68;31.42
16331;BME280;8275;48.206;16.340;2022-08-18T05:29:34;98624.50;;;29.73;31.60
16331;BME280;8275;48.206;16.340;2022-08-18T05:32:13;98631.81;;;29.78;31.36
16331;BME280;8275;48.206;16.340;2022-08-18T05:35:04;98633.84;;;29.84;31.36
16331;BME280;8275;48.206;16.340;2022-08-18T05:37:40;98631.84;;;29.92;31.28
16331;BME280;8275;48.206;16.340;2022-08-18T05:40:14;98620.16;;;29.97;31.44
16331;BME280;8275;48.206;16.340;2022-08-18T05:42:43;98630.66;;;30.04;31.29
16331;BME280;8275;48.206;16.340;2022-08-18T05:45:17;98618.16;;;30.05;31.16
16331;BME280;8275;48.206;16.340;2022-08-18T05:47:47;98623.44;;;30.13;30.97
16331;BME280;8275;48.206;16.340;2022-08-18T05:50:19;98617.78;;;30.24;31.03
16331;BME280;8275;48.206;16.340;2022-08-18T05:52:53;98615.41;;;30.36;30.98
16331;BME280;8275;48.206;16.340;2022-08-18T05:55:28;98604.88;;;30.44;30.83
16331;BME280;8275;48.206;16.340;2022-08-18T05:58:19;98600.06;;;30.48;30.88
16331;BME280;8275;48.206;16.340;2022-08-18T06:01:03;98612.97;;;30.49;30.80
16331;BME280;8275;48.206;16.340;2022-08-18T06:03:40;98613.38;;;30.51;30.84
16331;BME280;8275;48.206;16.340;2022-08-18T06:06:17;98617.03;;;30.55;30.70
16331;BME280;8275;48.206;16.340;2022-08-18T06:08:57;98617.81;;;30.63;30.67
16331;BME280;8275;48.206;16.340;2022-08-18T06:11:30;98615.75;;;30.74;30.45
16331;BME280;8275;48.206;16.340;2022-08-18T06:13:58;98618.59;;;30.84;30.58
16331;BME280;8275;48.206;16.340;2022-08-18T06:16:41;98616.19;;;30.93;30.50
16331;BME280;8275;48.206;16.340;2022-08-18T06:19:39;98618.56;;;31.09;30.40
16331;BME280;8275;48.206;16.340;2022-08-18T06:22:20;98628.63;;;31.28;30.08
16331;BME280;8275;48.206;16.340;2022-08-18T06:25:01;98634.25;;;31.45;29.89
16331;BME280;8275;48.206;16.340;2022-08-18T06:27:42;98635.03;;;31.56;29.79
16331;BME280;8275;48.206;16.340;2022-08-18T06:30:18;98637.38;;;31.68;30.00
16331;BME280;8275;48.206;16.340;2022-08-18T06:33:02;98649.44;;;31.83;29.88
16331;BME280;8275;48.206;16.340;2022-08-18T06:35:37;98648.97;;;32.02;29.42
16331;BME280;8275;48.206;16.340;2022-08-18T06:38:26;98660.25;;;32.13;29.62
16331;BME280;8275;48.206;16.340;2022-08-18T06:41:16;98667.78;;;32.33;29.40
16331;BME280;8275;48.206;16.340;2022-08-18T06:44:08;98668.91;;;32.46;29.24
16331;BME280;8275;48.206;16.340;2022-08-18T06:46:43;98664.41;;;32.56;28.69
16331;BME280;8275;48.206;16.340;2022-08-18T06:49:22;98668.44;;;32.62;28.66
16331;BME280;8275;48.206;16.340;2022-08-18T06:51:53;98672.84;;;32.67;28.54
16331;BME280;8275;48.206;16.340;2022-08-18T06:54:27;98672.84;;;32.67;28.50
16331;BME280;8275;48.206;16.340;2022-08-18T06:56:57;98669.56;;;32.72;28.42
16331;BME280;8275;48.206;16.340;2022-08-18T06:59:29;98674.38;;;32.78;28.61
16331;BME280;8275;48.206;16.340;2022-08-18T07:02:03;98681.97;;;32.88;28.42
16331;BME280;8275;48.206;16.340;2022-08-18T07:04:43;98683.09;;;32.98;27.76
16331;BME280;8275;48.206;16.340;2022-08-18T07:07:33;98702.53;;;32.99;28.21
16331;BME280;8275;48.206;16.340;2022-08-18T07:10:29;98710.63;;;33.04;28.36
16331;BME280;8275;48.206;16.340;2022-08-18T07:13:20;98706.50;;;33.12;28.28
16331;BME280;8275;48.206;16.340;2022-08-18T07:15:49;98712.06;;;33.27;28.00
16331;BME280;8275;48.206;16.340;2022-08-18T07:18:25;98709.16;;;33.34;27.49
16331;BME280;8275;48.206;16.340;2022-08-18T07:20:57;98707.75;;;33.49;27.67
16331;BME280;8275;48.206;16.340;2022-08-18T07:23:34;98710.91;;;33.61;27.82
16331;BME280;8275;48.206;16.340;2022-08-18T07:26:09;98714.41;;;33.72;27.19
16331;BME280;8275;48.206;16.340;2022-08-18T07:28:44;98724.44;;;33.84;27.36
16331;BME280;8275;48.206;16.340;2022-08-18T07:31:29;98721.78;;;34.00;27.39
16331;BME280;8275;48.206;16.340;2022-08-18T07:34:07;98726.06;;;34.15;26.85
16331;BME280;8275;48.206;16.340;2022-08-18T07:36:43;98723.84;;;34.30;26.56
16331;BME280;8275;48.206;16.340;2022-08-18T07:39:21;98728.63;;;34.36;26.85
16331;BME280;8275;48.206;16.340;2022-08-18T07:42:00;98723.69;;;34.40;26.89
16331;BME280;8275;48.206;16.340;2022-08-18T07:44:42;98707.88;;;34.39;26.81
16331;BME280;8275;48.206;16.340;2022-08-18T07:47:19;98702.91;;;34.43;26.65
16331;BME280;8275;48.206;16.340;2022-08-18T07:49:49;98701.19;;;34.49;26.34
16331;BME280;8275;48.206;16.340;2022-08-18T07:52:48;98705.66;;;34.50;25.93
16331;BME280;8275;48.206;16.340;2022-08-18T07:55:28;98706.22;;;34.42;25.90
16331;BME280;8275;48.206;16.340;2022-08-18T07:58:05;98718.44;;;34.39;26.04
16331;BME280;8275;48.206;16.340;2022-08-18T08:00:47;98714.75;;;34.42;26.20
16331;BME280;8275;48.206;16.340;2022-08-18T08:03:45;98724.81;;;34.46;25.91
16331;BME280;8275;48.206;16.340;2022-08-18T08:06:22;98729.56;;;34.56;26.30
16331;BME280;8275;48.206;16.340;2022-08-18T08:09:00;98717.72;;;34.62;26.08
16331;BME280;8275;48.206;16.340;2022-08-18T08:11:47;98717.59;;;34.69;25.70
16331;BME280;8275;48.206;16.340;2022-08-18T08:14:36;98719.53;;;34.75;25.38
16331;BME280;8275;48.206;16.340;2022-08-18T08:17:14;98724.16;;;34.89;25.34
16331;BME280;8275;48.206;16.340;2022-08-18T08:20:16;98726.91;;;34.96;25.11
16331;BME280;8275;48.206;16.340;2022-08-18T08:23:04;98723.16;;;35.02;24.61
16331;BME280;8275;48.206;16.340;2022-08-18T08:25:50;98718.63;;;35.05;24.42
16331;BME280;8275;48.206;16.340;2022-08-18T08:28:35;98708.13;;;35.02;24.43
16331;BME280;8275;48.206;16.340;2022-08-18T08:31:10;98706.84;;;35.06;24.63
16331;BME280;8275;48.206;16.340;2022-08-18T08:34:10;98702.69;;;35.11;24.88
16331;BME280;8275;48.206;16.340;2022-08-18T08:36:42;98691.09;;;35.21;24.61
16331;BME280;8275;48.206;16.340;2022-08-18T08:39:20;98698.69;;;35.28;24.38
16331;BME280;8275;48.206;16.340;2022-08-18T08:41:53;98689.97;;;35.39;24.35
16331;BME280;8275;48.206;16.340;2022-08-18T08:44:48;98675.44;;;35.53;24.42
16331;BME280;8275;48.206;16.340;2022-08-18T08:47:31;98668.03;;;35.59;23.72
16331;BME280;8275;48.206;16.340;2022-08-18T08:50:06;98661.38;;;35.65;23.87
16331;BME280;8275;48.206;16.340;2022-08-18T08:52:42;98650.69;;;35.69;23.76
16331;BME280;8275;48.206;16.340;2022-08-18T08:55:16;98652.16;;;35.77;23.60
16331;BME280;8275;48.206;16.340;2022-08-18T08:57:52;98621.88;;;35.83;23.85
16331;BME280;8275;48.206;16.340;2022-08-18T09:00:24;98616.03;;;35.90;23.78
16331;BME280;8275;48.206;16.340;2022-08-18T09:03:18;98615.91;;;35.98;23.87
16331;BME280;8275;48.206;16.340;2022-08-18T09:06:07;98605.69;;;36.16;23.89
16331;BME280;8275;48.206;16.340;2022-08-18T09:08:59;98600.44;;;36.31;23.73
16331;BME280;8275;48.206;16.340;2022-08-18T09:12:04;98599.72;;;36.43;23.57
16331;BME280;8275;48.206;16.340;2022-08-18T09:15:12;98601.63;;;36.49;23.91
16331;BME280;8275;48.206;16.340;2022-08-18T09:18:30;98595.56;;;36.63;23.81
16331;BME280;8275;48.206;16.340;2022-08-18T09:21:25;98602.88;;;36.81;23.55
16331;BME280;8275;48.206;16.340;2022-08-18T09:24:08;98612.41;;;36.90;23.69
16331;BME280;8275;48.206;16.340;2022-08-18T09:26:45;98622.56;;;37.07;23.22
16331;BME280;8275;48.206;16.340;2022-08-18T09:29:22;98620.59;;;37.20;23.18
16331;BME280;8275;48.206;16.340;2022-08-18T09:32:29;98612.50;;;37.32;23.11
16331;BME280;8275;48.206;16.340;2022-08-18T09:35:26;98617.41;;;37.47;23.07
16331;BME280;8275;48.206;16.340;2022-08-18T09:38:07;98609.66;;;37.60;22.97
16331;BME280;8275;48.206;16.340;2022-08-18T09:41:03;98617.13;;;37.70;22.90
16331;BME280;8275;48.206;16.340;2022-08-18T09:43:58;98622.97;;;37.79;22.74
16331;BME280;8275;48.206;16.340;2022-08-18T09:46:59;98622.56;;;37.93;22.74
16331;BME280;8275;48.206;16.340;2022-08-18T09:49:50;98609.19;;;38.03;22.54
16331;BME280;8275;48.206;16.340;2022-08-18T09:52:58;98608.16;;;38.10;22.20
16331;BME280;8275;48.206;16.340;2022-08-18T09:56:00;98608.38;;;38.15;22.52
16331;BME280;8275;48.206;16.340;2022-08-18T09:58:57;98597.88;;;38.12;22.56
16331;BME280;8275;48.206;16.340;2022-08-18T10:01:40;98604.28;;;38.16;22.10
16331;BME280;8275;48.206;16.340;2022-08-18T10:04:30;98606.56;;;38.21;22.18
16331;BME280;8275;48.206;16.340;2022-08-18T10:07:19;98608.06;;;38.26;22.43
16331;BME280;8275;48.206;16.340;2022-08-18T10:10:07;98613.59;;;38.33;21.87
16331;BME280;8275;48.206;16.340;2022-08-18T10:13:16;98617.25;;;38.33;21.98
16331;BME280;8275;48.206;16.340;2022-08-18T10:16:09;98616.88;;;38.31;21.78
16331;BME280;8275;48.206;16.340;2022-08-18T10:18:56;98614.38;;;38.33;21.94
16331;BME280;8275;48.206;16.340;2022-08-18T10:22:00;98607.84;;;38.33;21.54
16331;BME280;8275;48.206;16.340;2022-08-18T10:24:32;98603.28;;;38.35;21.94
16331;BME280;8275;48.206;16.340;2022-08-18T10:27:10;98598.00;;;38.34;21.59
16331;BME280;8275;48.206;16.340;2022-08-18T10:30:06;98588.75;;;38.30;21.90
16331;BME280;8275;48.206;16.340;2022-08-18T10:33:57;98581.06;;;38.27;21.75
16331;BME280;8275;48.206;16.340;2022-08-18T10:36:50;98571.22;;;38.28;21.47
16331;BME280;8275;48.206;16.340;2022-08-18T10:39:46;98563.09;;;38.26;21.53
16331;BME280;8275;48.206;16.340;2022-08-18T10:42:22;98564.59;;;38.31;21.95
16331;BME280;8275;48.206;16.340;2022-08-18T10:45:07;98559.88;;;38.37;21.61
16331;BME280;8275;48.206;16.340;2022-08-18T10:47:37;98557.13;;;38.58;21.47
16331;BME280;8275;48.206;16.340;2022-08-18T10:50:19;98560.75;;;38.84;21.06
16331;BME280;8275;48.206;16.340;2022-08-18T10:53:02;98562.91;;;39.14;21.76
16331;BME280;8275;48.206;16.340;2022-08-18T10:56:00;98551.59;;;39.54;21.15
16331;BME280;8275;48.206;16.340;2022-08-18T10:59:12;98553.50;;;40.01;21.08
16331;BME280;8275;48.206;16.340;2022-08-18T11:02:12;98556.09;;;40.56;20.90
16331;BME280;8275;48.206;16.340;2022-08-18T11:04:46;98539.56;;;41.06;19.95
16331;BME280;8275;48.206;16.340;2022-08-18T11:07:37;98538.16;;;41.47;19.85
16331;BME280;8275;48.206;16.340;2022-08-18T11:10:18;98537.13;;;41.77;19.42
16331;BME280;8275;48.206;16.340;2022-08-18T11:13:04;98538.28;;;42.12;19.17
16331;BME280;8275;48.206;16.340;2022-08-18T11:15:48;98527.94;;;42.38;18.89
16331;BME280;8275;48.206;16.340;2022-08-18T11:18:31;98540.03;;;42.75;18.77
16331;BME280;8275;48.206;16.340;2022-08-18T11:21:24;98539.69;;;43.20;18.29
16331;BME280;8275;48.206;16.340;2022-08-18T11:24:06;98533.41;;;43.60;17.79
16331;BME280;8275;48.206;16.340;2022-08-18T11:26:39;98526.53;;;44.02;17.92
16331;BME280;8275;48.206;16.340;2022-08-18T11:29:27;98521.50;;;44.46;17.34
16331;BME280;8275;48.206;16.340;2022-08-18T11:32:05;98517.91;;;44.91;16.79
16331;BME280;8275;48.206;16.340;2022-08-18T11:34:41;98521.22;;;45.24;16.32
16331;BME280;8275;48.206;16.340;2022-08-18T11:37:24;98523.91;;;45.54;16.13
16331;BME280;8275;48.206;16.340;2022-08-18T11:40:35;98521.03;;;45.85;15.96
16331;BME280;8275;48.206;16.340;2022-08-18T11:43:27;98520.59;;;46.23;15.11
16331;BME280;8275;48.206;16.340;2022-08-18T11:46:20;98519.25;;;46.61;14.73
16331;BME280;8275;48.206;16.340;2022-08-18T11:48:59;98522.88;;;46.98;14.32
16331;BME280;8275;48.206;16.340;2022-08-18T11:51:32;98518.53;;;47.31;13.84
16331;BME280;8275;48.206;16.340;2022-08-18T11:54:19;98534.97;;;47.61;14.03
16331;BME280;8275;48.206;16.340;2022-08-18T11:57:47;98541.88;;;47.86;14.00
16331;BME280;8275;48.206;16.340;2022-08-18T12:00:55;98544.00;;;48.02;13.88
16331;BME280;8275;48.206;16.340;2022-08-18T12:03:37;98543.22;;;48.18;13.14
16331;BME280;8275;48.206;16.340;2022-08-18T12:06:20;98530.50;;;48.43;12.76
16331;BME280;8275;48.206;16.340;2022-08-18T12:08:58;98519.13;;;48.62;12.29
16331;BME280;8275;48.206;16.340;2022-08-18T12:11:31;98533.91;;;48.64;12.23
16331;BME280;8275;48.206;16.340;2022-08-18T12:14:06;98528.84;;;48.76;12.13
16331;BME280;8275;48.206;16.340;2022-08-18T12:16:55;98523.16;;;49.22;12.09
16331;BME280;8275;48.206;16.340;2022-08-18T12:19:27;98528.25;;;49.57;11.50
16331;BME280;8275;48.206;16.340;2022-08-18T12:22:11;98520.28;;;49.98;11.27
16331;BME280;8275;48.206;16.340;2022-08-18T12:24:39;98513.25;;;50.42;11.09
16331;BME280;8275;48.206;16.340;2022-08-18T12:27:09;98504.78;;;50.87;10.76
16331;BME280;8275;48.206;16.340;2022-08-18T12:29:49;98499.34;;;51.39;10.72
16331;BME280;8275;48.206;16.340;2022-08-18T12:32:19;98499.41;;;51.84;10.44
16331;BME280;8275;48.206;16.340;2022-08-18T12:35:10;98503.50;;;52.26;9.84
16331;BME280;8275;48.206;16.340;2022-08-18T12:37:43;98490.34;;;52.45;9.56
16331;BME280;8275;48.206;16.340;2022-08-18T12:40:31;98480.28;;;52.60;9.41
16331;BME280;8275;48.206;16.340;2022-08-18T12:43:00;98476.13;;;52.68;9.26
16331;BME280;8275;48.206;16.340;2022-08-18T12:45:30;98484.56;;;52.85;9.20
16331;BME280;8275;48.206;16.340;2022-08-18T12:47:58;98480.47;;;53.01;8.99
16331;BME280;8275;48.206;16.340;2022-08-18T12:50:31;98455.91;;;53.17;9.18
16331;BME280;8275;48.206;16.340;2022-08-18T12:53:16;98453.91;;;53.12;8.81
16331;BME280;8275;48.206;16.340;2022-08-18T12:55:56;98446.03;;;53.07;8.79
16331;BME280;8275;48.206;16.340;2022-08-18T12:58:26;98441.19;;;53.09;8.55
16331;BME280;8275;48.206;16.340;2022-08-18T13:00:56;98439.34;;;53.19;8.28
16331;BME280;8275;48.206;16.340;2022-08-18T13:03:25;98443.53;;;53.11;8.83
16331;BME280;8275;48.206;16.340;2022-08-18T13:05:55;98451.56;;;52.97;8.71
16331;BME280;8275;48.206;16.340;2022-08-18T13:08:26;98452.63;;;52.87;8.63
16331;BME280;8275;48.206;16.340;2022-08-18T13:11:04;98446.19;;;52.75;8.51
16331;BME280;8275;48.206;16.340;2022-08-18T13:13:50;98436.38;;;52.86;8.55
16331;BME280;8275;48.206;16.340;2022-08-18T13:16:24;98449.97;;;52.96;8.92
16331;BME280;8275;48.206;16.340;2022-08-18T13:19:05;98446.41;;;52.90;8.34
16331;BME280;8275;48.206;16.340;2022-08-18T13:21:37;98445.22;;;53.06;8.32
16331;BME280;8275;48.206;16.340;2022-08-18T13:24:09;98454.31;;;53.16;8.02
16331;BME280;8275;48.206;16.340;2022-08-18T13:26:42;98468.75;;;53.14;8.09
16331;BME280;8275;48.206;16.340;2022-08-18T13:29:12;98467.53;;;53.09;8.22
16331;BME280;8275;48.206;16.340;2022-08-18T13:31:45;98476.41;;;53.04;8.34
16331;BME280;8275;48.206;16.340;2022-08-18T13:34:24;98465.63;;;52.99;8.00
16331;BME280;8275;48.206;16.340;2022-08-18T13:36:56;98468.00;;;53.00;7.82
16331;BME280;8275;48.206;16.340;2022-08-18T13:39:25;98476.00;;;53.00;7.50
16331;BME280;8275;48.206;16.340;2022-08-18T13:42:01;98471.56;;;53.06;7.88
16331;BME280;8275;48.206;16.340;2022-08-18T13:44:50;98483.47;;;53.35;7.70
16331;BME280;8275;48.206;16.340;2022-08-18T13:47:24;98479.22;;;53.56;7.85
16331;BME280;8275;48.206;16.340;2022-08-18T13:50:05;98481.44;;;53.63;7.85
16331;BME280;8275;48.206;16.340;2022-08-18T13:52:39;98474.38;;;53.79;7.16
16331;BME280;8275;48.206;16.340;2022-08-18T13:55:14;98473.03;;;54.01;7.59
16331;BME280;8275;48.206;16.340;2022-08-18T13:57:44;98461.25;;;54.14;7.59
16331;BME280;8275;48.206;16.340;2022-08-18T14:00:18;98466.91;;;54.12;6.89
16331;BME280;8275;48.206;16.340;2022-08-18T14:02:58;98465.38;;;53.98;6.87